createdAt,value
2017-11-07T00:00:20.467Z,98601.22
2017-11-07T00:02:48.030Z,98602.88
2017-11-07T00:05:15.586Z,98601.47
2017-11-07T00:07:43.082Z,98602.34
2017-11-07T00:10:16.083Z,98600.50
2017-11-07T00:12:43.564Z,98593.96
2017-11-07T00:15:11.090Z,98596.80
2017-11-07T00:17:38.586Z,98597.06
2017-11-07T00:20:06.089Z,98592.45
2017-11-07T00:22:35.392Z,98590.27
2017-11-07T00:25:02.914Z,98588.81
2017-11-07T00:27:30.422Z,98582.78
2017-11-07T00:29:57.941Z,98577.27
2017-11-07T00:32:25.433Z,98578.80
2017-11-07T00:34:52.936Z,98568.73
2017-11-07T00:37:20.434Z,98567.86
2017-11-07T00:39:47.924Z,98561.48
2017-11-07T00:42:15.430Z,98562.69
2017-11-07T00:44:42.927Z,98562.48
2017-11-07T00:47:10.410Z,98563.86
2017-11-07T00:49:37.941Z,98562.06
2017-11-07T00:52:05.462Z,98566.45
2017-11-07T00:54:33.006Z,98561.20
2017-11-07T00:57:00.500Z,98554.90
2017-11-07T00:59:27.997Z,98558.83
2017-11-07T01:01:55.546Z,98556.26
2017-11-07T01:04:23.039Z,98548.16
2017-11-07T01:06:50.551Z,98542.79
2017-11-07T01:09:18.050Z,98541.81
2017-11-07T01:11:45.539Z,98540.11
2017-11-07T01:14:13.055Z,98544.16
2017-11-07T01:16:40.543Z,98532.73
2017-11-07T01:19:08.038Z,98528.55
2017-11-07T01:21:35.540Z,98519.98
2017-11-07T01:24:03.056Z,98510.13
2017-11-07T01:26:30.542Z,98513.22
2017-11-07T01:28:58.064Z,98509.76
2017-11-07T01:31:25.568Z,98509.30
2017-11-07T01:33:53.070Z,98505.38
2017-11-07T01:36:20.594Z,98505.25
2017-11-07T01:38:48.148Z,98500.73
2017-11-07T01:41:15.704Z,98490.91
2017-11-07T01:43:43.216Z,98488.95
2017-11-07T01:46:10.716Z,98496.59
2017-11-07T01:48:38.218Z,98490.00
2017-11-07T01:51:05.741Z,98495.29
2017-11-07T01:53:33.236Z,98492.34
2017-11-07T01:56:00.744Z,98492.37
2017-11-07T01:58:28.234Z,98493.47
2017-11-07T02:00:55.838Z,98496.47
2017-11-07T02:03:23.341Z,98490.27
2017-11-07T02:05:50.837Z,98490.53
2017-11-07T02:08:18.337Z,98484.86
2017-11-07T02:10:45.851Z,98489.38
2017-11-07T02:13:13.346Z,98482.06
2017-11-07T02:15:40.856Z,98480.98
2017-11-07T02:18:08.365Z,98472.92
2017-11-07T02:20:35.856Z,98476.28
2017-11-07T02:23:03.353Z,98472.88
2017-11-07T02:25:30.857Z,98479.98
2017-11-07T02:27:58.368Z,98477.59
2017-11-07T02:30:25.866Z,98479.40
2017-11-07T02:32:53.375Z,98478.45
2017-11-07T02:35:20.883Z,98472.38
2017-11-07T02:37:48.411Z,98465.89
2017-11-07T02:40:15.908Z,98465.51
2017-11-07T02:42:43.418Z,98464.31
2017-11-07T02:45:10.903Z,98465.20
2017-11-07T02:47:38.396Z,98458.80
2017-11-07T02:50:05.908Z,98455.33
2017-11-07T02:52:33.409Z,98458.55
2017-11-07T02:55:00.904Z,98454.13
2017-11-07T02:57:28.398Z,98451.31
2017-11-07T02:59:55.898Z,98448.39
2017-11-07T03:02:23.407Z,98450.61
2017-11-07T03:04:50.918Z,98452.45
2017-11-07T03:07:18.417Z,98442.14
2017-11-07T03:09:45.923Z,98452.16
2017-11-07T03:12:13.420Z,98441.97
2017-11-07T03:14:40.935Z,98446.16
2017-11-07T03:17:08.460Z,98444.13
2017-11-07T03:19:35.974Z,98444.53
2017-11-07T03:22:03.500Z,98435.34
2017-11-07T03:24:31.002Z,98438.52
2017-11-07T03:26:58.500Z,98436.85
2017-11-07T03:29:26.017Z,98440.31
2017-11-07T03:31:53.524Z,98429.44
2017-11-07T03:34:21.033Z,98430.23
2017-11-07T03:36:48.537Z,98421.84
2017-11-07T03:39:16.045Z,98425.63
2017-11-07T03:41:43.567Z,98418.72
2017-11-07T03:44:11.072Z,98411.58
2017-11-07T03:46:38.568Z,98412.75
2017-11-07T03:49:06.078Z,98407.06
2017-11-07T03:51:33.706Z,98411.47
2017-11-07T03:54:01.221Z,98409.27
2017-11-07T03:56:28.854Z,98403.83
2017-11-07T03:58:56.364Z,98398.07
2017-11-07T04:01:23.857Z,98399.11
2017-11-07T04:03:51.359Z,98398.86
2017-11-07T04:06:18.865Z,98393.81
2017-11-07T04:08:46.389Z,98387.16
2017-11-07T04:11:13.881Z,98392.80
2017-11-07T04:13:41.393Z,98390.24
2017-11-07T04:16:08.900Z,98381.06
2017-11-07T04:18:36.409Z,98378.08
2017-11-07T04:21:03.920Z,98385.16
2017-11-07T04:23:31.412Z,98376.69
2017-11-07T04:25:58.905Z,98375.72
2017-11-07T04:28:26.427Z,98381.66
2017-11-07T04:30:53.922Z,98375.92
2017-11-07T04:33:21.414Z,98371.88
2017-11-07T04:35:48.918Z,98362.46
2017-11-07T04:38:16.425Z,98363.09
2017-11-07T04:40:43.955Z,98360.27
2017-11-07T04:43:11.461Z,98362.30
2017-11-07T04:45:38.995Z,98360.80
2017-11-07T04:48:06.509Z,98359.34
2017-11-07T04:50:34.019Z,98358.38
2017-11-07T04:53:01.517Z,98353.55
2017-11-07T04:55:29.025Z,98354.63
2017-11-07T04:57:56.537Z,98357.03
2017-11-07T05:00:24.037Z,98352.73
2017-11-07T05:02:51.550Z,98347.79
2017-11-07T05:05:19.060Z,98345.64
2017-11-07T05:07:46.558Z,98344.95
2017-11-07T05:10:14.059Z,98337.84
2017-11-07T05:12:41.566Z,98344.17
2017-11-07T05:15:09.074Z,98345.94
2017-11-07T05:17:36.591Z,98345.98
2017-11-07T05:20:04.115Z,98337.09
2017-11-07T05:22:31.622Z,98334.39
2017-11-07T05:24:59.138Z,98336.98
2017-11-07T05:27:26.715Z,98334.59
2017-11-07T05:29:54.239Z,98331.91
2017-11-07T05:32:21.724Z,98339.66
2017-11-07T05:34:49.227Z,98336.39
2017-11-07T05:37:16.743Z,98335.53
2017-11-07T05:39:44.345Z,98339.23
2017-11-07T05:42:11.860Z,98339.33
2017-11-07T05:44:39.362Z,98336.12
2017-11-07T05:47:06.864Z,98337.33
2017-11-07T05:49:34.378Z,98334.20
2017-11-07T05:52:01.901Z,98329.59
2017-11-07T05:54:29.414Z,98340.02
2017-11-07T05:56:56.912Z,98338.86
2017-11-07T05:59:24.432Z,98336.16
2017-11-07T06:01:51.928Z,98328.88
2017-11-07T06:04:19.444Z,98330.34
2017-11-07T06:06:46.954Z,98325.58
2017-11-07T06:09:14.495Z,98329.05
2017-11-07T06:11:42.009Z,98334.97
2017-11-07T06:14:09.522Z,98342.51
2017-11-07T06:16:37.040Z,98335.37
2017-11-07T06:19:04.552Z,98338.45
2017-11-07T06:21:32.054Z,98341.55
2017-11-07T06:23:59.594Z,98349.77
2017-11-07T06:26:27.097Z,98346.12
2017-11-07T06:28:54.597Z,98338.63
2017-11-07T06:31:22.107Z,98334.91
2017-11-07T06:33:50.594Z,98336.18
2017-11-07T06:36:18.100Z,98331.09
2017-11-07T06:38:45.620Z,98333.88
2017-11-07T06:41:13.118Z,98335.47
2017-11-07T06:43:40.626Z,98336.86
2017-11-07T06:46:08.134Z,98333.32
2017-11-07T06:48:35.634Z,98334.58
2017-11-07T06:51:03.141Z,98330.88
2017-11-07T06:53:30.647Z,98327.59
2017-11-07T06:55:58.173Z,98323.67
2017-11-07T06:58:25.688Z,98321.96
2017-11-07T07:00:53.194Z,98312.95
2017-11-07T07:03:20.696Z,98320.77
2017-11-07T07:05:48.193Z,98317.16
2017-11-07T07:08:15.702Z,98323.83
2017-11-07T07:10:43.215Z,98317.39
2017-11-07T07:13:10.709Z,98318.23
2017-11-07T07:15:38.326Z,98312.32
2017-11-07T07:18:05.831Z,98323.09
2017-11-07T07:20:33.330Z,98319.05
2017-11-07T07:23:00.852Z,98320.36
2017-11-07T07:25:28.373Z,98328.55
2017-11-07T07:27:55.874Z,98321.06
2017-11-07T07:30:23.371Z,98313.78
2017-11-07T07:32:50.897Z,98322.94
2017-11-07T07:35:18.411Z,98321.85
2017-11-07T07:37:45.938Z,98313.95
2017-11-07T07:40:13.441Z,98323.56
2017-11-07T07:42:40.943Z,98312.94
2017-11-07T07:45:08.436Z,98319.11
2017-11-07T07:47:35.943Z,98314.38
2017-11-07T07:50:03.470Z,98314.29
2017-11-07T07:52:31.043Z,98318.29
2017-11-07T07:54:58.603Z,98312.29
2017-11-07T07:57:26.094Z,98317.54
2017-11-07T07:59:53.595Z,98314.87
2017-11-07T08:02:21.107Z,98316.02
2017-11-07T08:04:48.603Z,98306.12
2017-11-07T08:07:16.123Z,98307.46
2017-11-07T08:09:43.630Z,98303.03
2017-11-07T08:12:11.150Z,98290.41
2017-11-07T08:14:38.648Z,98296.45
2017-11-07T08:17:06.150Z,98290.28
2017-11-07T08:19:33.659Z,98290.95
2017-11-07T08:22:01.181Z,98295.97
2017-11-07T08:24:28.797Z,98285.72
2017-11-07T08:26:56.291Z,98288.19
2017-11-07T08:29:23.818Z,98292.48
2017-11-07T08:31:51.315Z,98285.64
2017-11-07T08:34:18.819Z,98292.08
2017-11-07T08:36:46.330Z,98288.98
2017-11-07T08:39:13.867Z,98283.48
2017-11-07T08:41:41.383Z,98286.02
2017-11-07T08:44:08.883Z,98281.47
2017-11-07T08:46:36.382Z,98275.95
2017-11-07T08:49:03.883Z,98278.25
2017-11-07T08:51:31.407Z,98279.31
2017-11-07T08:53:58.916Z,98278.64
2017-11-07T08:56:26.430Z,98279.31
2017-11-07T08:58:53.926Z,98268.98
2017-11-07T09:01:21.421Z,98269.12
2017-11-07T09:03:48.934Z,98276.10
2017-11-07T09:06:16.437Z,98270.58
2017-11-07T09:08:43.932Z,98263.45
2017-11-07T09:11:11.450Z,98262.39
2017-11-07T09:13:38.971Z,98266.42
2017-11-07T09:16:06.465Z,98256.74
2017-11-07T09:18:33.966Z,98253.27
2017-11-07T09:21:01.468Z,98253.66
2017-11-07T09:23:28.983Z,98250.84
2017-11-07T09:25:56.525Z,98250.17
2017-11-07T09:28:24.027Z,98248.68
2017-11-07T09:30:51.541Z,98248.30
2017-11-07T09:33:19.042Z,98250.70
2017-11-07T09:35:46.566Z,98247.89
2017-11-07T09:38:14.071Z,98245.73
2017-11-07T09:40:41.572Z,98246.52
2017-11-07T09:43:09.144Z,98248.69
2017-11-07T09:45:36.667Z,98247.41
2017-11-07T09:48:04.183Z,98248.27
2017-11-07T09:50:31.696Z,98248.27
2017-11-07T09:52:59.202Z,98241.26
2017-11-07T09:55:26.690Z,98238.57
2017-11-07T09:57:54.195Z,98237.35
2017-11-07T10:00:21.722Z,98230.75
2017-11-07T10:02:49.246Z,98229.52
2017-11-07T10:05:16.765Z,98220.12
2017-11-07T10:07:44.268Z,98215.05
2017-11-07T10:10:11.782Z,98213.80
2017-11-07T10:12:39.613Z,98209.53
2017-11-07T10:15:07.123Z,98207.03
2017-11-07T10:17:34.614Z,98199.07
2017-11-07T10:20:02.105Z,98197.81
2017-11-07T10:22:29.611Z,98190.09
2017-11-07T10:24:57.245Z,98190.58
2017-11-07T10:27:24.777Z,98180.48
2017-11-07T10:29:52.285Z,98182.36
2017-11-07T10:32:19.828Z,98178.80
2017-11-07T10:34:47.326Z,98169.01
2017-11-07T10:37:14.829Z,98164.31
2017-11-07T10:39:42.334Z,98161.52
2017-11-07T10:42:09.845Z,98156.47
2017-11-07T10:44:37.559Z,98151.06
2017-11-07T10:47:05.083Z,98150.51
2017-11-07T10:49:32.603Z,98142.89
2017-11-07T10:52:00.174Z,98141.16
2017-11-07T10:54:27.734Z,98135.77
2017-11-07T10:56:55.259Z,98130.38
2017-11-07T10:59:22.777Z,98136.80
2017-11-07T11:01:50.293Z,98125.25
2017-11-07T11:04:17.801Z,98123.45
2017-11-07T11:06:45.307Z,98117.33
2017-11-07T11:09:12.805Z,98104.77
2017-11-07T11:11:40.322Z,98103.22
2017-11-07T11:14:07.835Z,98104.66
2017-11-07T11:16:35.334Z,98103.79
2017-11-07T11:19:02.827Z,98101.25
2017-11-07T11:21:30.345Z,98100.58
2017-11-07T11:23:57.872Z,98097.53
2017-11-07T11:26:25.369Z,98092.23
2017-11-07T11:28:52.861Z,98090.45
2017-11-07T11:31:20.383Z,98091.12
2017-11-07T11:33:47.891Z,98090.58
2017-11-07T11:36:15.513Z,98092.55
2017-11-07T11:38:43.073Z,98089.85
2017-11-07T11:41:10.581Z,98091.51
2017-11-07T11:43:38.090Z,98093.41
2017-11-07T11:46:05.607Z,98082.64
2017-11-07T11:48:33.128Z,98079.64
2017-11-07T11:51:00.653Z,98074.98
2017-11-07T11:53:28.147Z,98079.52
2017-11-07T11:55:55.669Z,98072.30
2017-11-07T11:58:23.167Z,98067.47
2017-11-07T12:00:50.660Z,98064.55
2017-11-07T12:03:18.190Z,98067.12
2017-11-07T12:05:45.693Z,98060.91
2017-11-07T12:08:13.211Z,98065.23
2017-11-07T12:10:40.712Z,98053.41
2017-11-07T12:13:08.235Z,98048.60
2017-11-07T12:15:35.768Z,98045.29
2017-11-07T12:18:03.267Z,98033.91
2017-11-07T12:20:30.829Z,98040.11
2017-11-07T12:22:58.344Z,98038.97
2017-11-07T12:25:25.854Z,98030.36
2017-11-07T12:27:53.378Z,98027.92
2017-11-07T12:30:21.016Z,98021.00
2017-11-07T12:32:48.541Z,98022.27
2017-11-07T12:35:16.055Z,98023.01
2017-11-07T12:37:43.575Z,98011.08
2017-11-07T12:40:11.078Z,98014.68
2017-11-07T12:42:38.587Z,98018.27
2017-11-07T12:45:06.101Z,98018.44
2017-11-07T12:47:33.609Z,98019.29
2017-11-07T12:53:03.188Z,98007.67
2017-11-07T12:55:30.702Z,98000.34
2017-11-07T12:57:58.214Z,97991.84
2017-11-07T13:00:25.736Z,97986.88
2017-11-07T13:02:53.252Z,97992.43
2017-11-07T13:05:20.753Z,97987.74
2017-11-07T13:07:48.258Z,97988.37
2017-11-07T13:10:15.786Z,97989.27
2017-11-07T13:12:43.281Z,97985.20
2017-11-07T13:15:10.787Z,97984.51
2017-11-07T13:17:38.401Z,97988.03
2017-11-07T13:20:05.921Z,97987.14
2017-11-07T13:22:33.463Z,97988.69
2017-11-07T13:25:00.973Z,97992.25
2017-11-07T13:27:28.505Z,97995.44
2017-11-07T13:29:56.026Z,97992.10
2017-11-07T13:32:23.541Z,97999.98
2017-11-07T13:34:51.068Z,98004.72
2017-11-07T13:37:18.668Z,97992.86
2017-11-07T13:39:46.166Z,97997.03
2017-11-07T13:42:13.664Z,97991.41
2017-11-07T13:44:41.183Z,98001.19
2017-11-07T13:47:08.673Z,98001.70
2017-11-07T13:49:36.183Z,97997.90
2017-11-07T13:52:03.686Z,97999.58
2017-11-07T13:54:31.222Z,97999.15
2017-11-07T13:56:58.725Z,97991.61
2017-11-07T13:59:26.252Z,97994.26
2017-11-07T14:01:53.844Z,97993.53
2017-11-07T14:04:21.403Z,97987.30
2017-11-07T14:06:48.927Z,97984.02
2017-11-07T14:09:16.465Z,97984.42
2017-11-07T14:11:43.975Z,97978.14
2017-11-07T14:14:11.593Z,97981.98
2017-11-07T14:16:39.101Z,97981.71
2017-11-07T14:19:06.606Z,97983.55
2017-11-07T14:21:34.109Z,97975.92
2017-11-07T14:24:01.622Z,97970.47
2017-11-07T14:26:29.130Z,97967.00
2017-11-07T14:28:56.639Z,97967.86
2017-11-07T14:31:24.153Z,97962.94
2017-11-07T14:33:51.654Z,97967.78
2017-11-07T14:36:19.183Z,97970.74
2017-11-07T14:38:46.686Z,97961.97
2017-11-07T14:41:14.192Z,97963.38
2017-11-07T14:43:41.706Z,97964.88
2017-11-07T14:46:09.494Z,97969.86
2017-11-07T14:48:37.006Z,97966.57
2017-11-07T14:51:04.529Z,97975.95
2017-11-07T14:53:32.045Z,97970.27
2017-11-07T14:55:59.546Z,97961.56
2017-11-07T14:58:27.050Z,97965.47
2017-11-07T15:00:54.558Z,97965.80
2017-11-07T15:03:22.061Z,97961.47
2017-11-07T15:05:49.606Z,97960.84
2017-11-07T15:08:17.157Z,97965.06
2017-11-07T15:10:44.672Z,97957.91
2017-11-07T15:13:12.193Z,97964.11
2017-11-07T15:15:39.735Z,97963.20
2017-11-07T15:18:07.241Z,97965.53
2017-11-07T15:20:34.754Z,97961.90
2017-11-07T15:23:02.375Z,97961.84
2017-11-07T15:25:29.904Z,97964.05
2017-11-07T15:27:57.688Z,97967.37
2017-11-07T15:30:25.210Z,97959.52
2017-11-07T15:32:52.748Z,97959.37
2017-11-07T15:35:20.289Z,97965.17
2017-11-07T15:37:47.834Z,97952.59
2017-11-07T15:40:15.366Z,97967.12
2017-11-07T15:42:42.884Z,97961.67
2017-11-07T15:45:10.402Z,97955.80
2017-11-07T15:47:37.910Z,97956.33
2017-11-07T15:50:05.423Z,97958.98
2017-11-07T15:52:32.933Z,97962.06
2017-11-07T15:55:00.476Z,97961.03
2017-11-07T15:57:28.163Z,97964.04
2017-11-07T15:59:55.694Z,97971.05
2017-11-07T16:02:23.193Z,97966.56
2017-11-07T16:04:50.736Z,97968.67
2017-11-07T16:07:18.241Z,97971.28
2017-11-07T16:09:45.743Z,97965.33
2017-11-07T16:12:13.540Z,97966.25
2017-11-07T16:14:41.044Z,97970.71
2017-11-07T16:17:08.578Z,97969.73
2017-11-07T16:19:36.087Z,97972.09
2017-11-07T16:22:03.617Z,97969.79
2017-11-07T16:24:31.159Z,97979.86
2017-11-07T16:26:58.689Z,97985.20
2017-11-07T16:29:26.209Z,97974.40
2017-11-07T16:31:53.762Z,97981.41
2017-11-07T16:34:21.318Z,97972.41
2017-11-07T16:36:48.851Z,97973.57
2017-11-07T16:39:16.364Z,97971.16
2017-11-07T16:41:43.895Z,97969.83
2017-11-07T16:44:11.399Z,97970.55
2017-11-07T16:46:38.899Z,97965.47
2017-11-07T16:49:06.406Z,97975.09
2017-11-07T16:51:33.923Z,97971.73
2017-11-07T16:54:01.539Z,97974.23
2017-11-07T16:56:29.045Z,97969.41
2017-11-07T16:58:56.563Z,97971.68
2017-11-07T17:01:24.306Z,97971.39
2017-11-07T17:03:51.807Z,97968.25
2017-11-07T17:06:19.321Z,97966.98
2017-11-07T17:08:46.832Z,97960.77
2017-11-07T17:11:14.339Z,97964.17
2017-11-07T17:13:41.880Z,97962.38
2017-11-07T17:16:09.393Z,97958.66
2017-11-07T17:18:36.925Z,97961.14
2017-11-07T17:21:04.442Z,97963.74
2017-11-07T17:23:31.976Z,97962.61
2017-11-07T17:25:59.645Z,97960.91
2017-11-07T17:28:27.145Z,97968.33
2017-11-07T17:30:54.707Z,97958.25
2017-11-07T17:33:22.221Z,97952.72
2017-11-07T17:35:49.751Z,97961.75
2017-11-07T17:38:17.266Z,97961.58
2017-11-07T17:40:44.781Z,97962.02
2017-11-07T17:43:12.291Z,97967.92
2017-11-07T17:45:39.798Z,97960.45
2017-11-07T17:48:07.320Z,97947.80
2017-11-07T17:50:34.833Z,97959.75
2017-11-07T17:53:02.357Z,97959.00
2017-11-07T17:55:29.888Z,97965.75
2017-11-07T17:57:57.403Z,97960.20
2017-11-07T18:00:24.938Z,97955.91
2017-11-07T18:02:52.454Z,97953.73
2017-11-07T18:05:20.011Z,97954.97
2017-11-07T18:07:47.550Z,97950.85
2017-11-07T18:10:15.056Z,97949.48
2017-11-07T18:12:42.613Z,97951.37
2017-11-07T18:15:10.110Z,97948.38
2017-11-07T18:17:37.648Z,97946.10
2017-11-07T18:20:05.202Z,97946.10
2017-11-07T18:22:32.718Z,97949.66
2017-11-07T18:25:00.241Z,97954.58
2017-11-07T18:27:27.770Z,97960.72
2017-11-07T18:29:55.310Z,97957.20
2017-11-07T18:32:22.834Z,97953.56
2017-11-07T18:34:50.372Z,97950.36
2017-11-07T18:37:17.928Z,97952.42
2017-11-07T18:39:45.453Z,97945.58
2017-11-07T18:42:12.980Z,97944.52
2017-11-07T18:44:40.528Z,97944.53
2017-11-07T18:47:08.038Z,97946.27
2017-11-07T18:49:35.545Z,97938.92
2017-11-07T18:52:03.092Z,97933.73
2017-11-07T18:54:30.682Z,97941.13
2017-11-07T18:56:58.248Z,97941.56
2017-11-07T18:59:25.784Z,97945.88
2017-11-07T19:01:53.281Z,97947.64
2017-11-07T19:04:20.829Z,97942.87
2017-11-07T19:06:48.476Z,97941.92
2017-11-07T19:09:16.009Z,97938.09
2017-11-07T19:11:43.528Z,97937.44
2017-11-07T19:14:11.051Z,97937.38
2017-11-07T19:16:38.939Z,97934.37
2017-11-07T19:19:06.451Z,97930.13
2017-11-07T19:21:34.077Z,97922.80
2017-11-07T19:24:01.583Z,97921.23
2017-11-07T19:26:29.139Z,97919.64
2017-11-07T19:28:56.665Z,97913.46
2017-11-07T19:31:24.168Z,97908.25
2017-11-07T19:33:51.738Z,97912.47
2017-11-07T19:36:19.287Z,97910.72
2017-11-07T19:38:46.809Z,97910.16
2017-11-07T19:41:14.333Z,97909.34
2017-11-07T19:43:41.900Z,97905.63
2017-11-07T19:46:09.415Z,97904.23
2017-11-07T19:48:36.957Z,97902.63
2017-11-07T19:51:04.472Z,97901.61
2017-11-07T19:53:32.011Z,97904.23
2017-11-07T19:55:59.532Z,97902.54
2017-11-07T19:58:27.051Z,97907.91
2017-11-07T20:00:54.575Z,97914.06
2017-11-07T20:03:22.177Z,97908.28
2017-11-07T20:05:49.687Z,97905.27
2017-11-07T20:08:17.207Z,97902.83
2017-11-07T20:10:44.750Z,97910.61
2017-11-07T20:13:12.301Z,97906.46
2017-11-07T20:15:39.823Z,97901.91
2017-11-07T20:18:07.347Z,97905.41
2017-11-07T20:20:34.903Z,97910.23
2017-11-07T20:23:02.436Z,97910.42
2017-11-07T20:25:29.958Z,97908.70
2017-11-07T20:27:57.611Z,97907.11
2017-11-07T20:30:25.120Z,97901.48
2017-11-07T20:32:52.641Z,97903.81
2017-11-07T20:35:20.288Z,97900.91
2017-11-07T20:37:47.825Z,97900.17
2017-11-07T20:40:15.385Z,97898.99
2017-11-07T20:42:42.905Z,97911.44
2017-11-07T20:45:10.425Z,97916.44
2017-11-07T20:47:37.949Z,97924.59
2017-11-07T20:50:05.477Z,97925.50
2017-11-07T20:52:33.047Z,97927.97
2017-11-07T20:55:00.553Z,97917.38
2017-11-07T20:57:28.088Z,97914.53
2017-11-07T20:59:55.594Z,97906.80
2017-11-07T21:02:23.119Z,97899.25
2017-11-07T21:04:50.646Z,97895.91
2017-11-07T21:07:18.153Z,97896.41
2017-11-07T21:09:45.683Z,97892.72
2017-11-07T21:12:13.219Z,97889.44
2017-11-07T21:14:40.730Z,97893.48
2017-11-07T21:17:08.406Z,97890.74
2017-11-07T21:19:36.711Z,97887.11
2017-11-07T21:22:04.247Z,97885.38
2017-11-07T21:24:31.800Z,97888.61
2017-11-07T21:26:59.325Z,97884.97
2017-11-07T21:29:26.821Z,97888.52
2017-11-07T21:31:54.421Z,97877.33
2017-11-07T21:34:22.922Z,97881.22
2017-11-07T21:36:50.423Z,97884.13
2017-11-07T21:39:17.936Z,97886.11
2017-11-07T21:41:45.443Z,97877.77
2017-11-07T21:44:12.988Z,97873.81
2017-11-07T21:46:40.488Z,97867.28
2017-11-07T21:49:08.011Z,97869.07
2017-11-07T21:51:35.519Z,97861.06
2017-11-07T21:54:03.059Z,97861.45
2017-11-07T21:56:30.590Z,97863.14
2017-11-07T21:58:58.106Z,97862.73
2017-11-07T22:01:25.639Z,97863.33
2017-11-07T22:03:53.142Z,97861.06
2017-11-07T22:06:20.646Z,97863.34
2017-11-07T22:08:48.159Z,97866.03
2017-11-07T22:11:15.657Z,97869.95
2017-11-07T22:13:43.258Z,97868.27
2017-11-07T22:16:10.784Z,97868.92
2017-11-07T22:18:38.289Z,97857.84
2017-11-07T22:21:05.818Z,97856.47
2017-11-07T22:23:39.094Z,97854.23
2017-11-07T22:26:06.618Z,97847.70
2017-11-07T22:28:34.146Z,97848.59
2017-11-07T22:31:01.671Z,97841.94
2017-11-07T22:33:29.207Z,97838.88
2017-11-07T22:35:56.706Z,97845.07
2017-11-07T22:38:24.218Z,97842.66
2017-11-07T22:40:51.737Z,97845.51
2017-11-07T22:43:19.290Z,97847.64
2017-11-07T22:45:46.801Z,97859.09
2017-11-07T22:48:14.306Z,97857.52
2017-11-07T22:50:41.807Z,97860.41
2017-11-07T22:53:09.334Z,97862.31
2017-11-07T22:55:36.842Z,97854.73
2017-11-07T22:58:04.454Z,97860.43
2017-11-07T23:00:32.096Z,97867.82
2017-11-07T23:02:59.611Z,97871.74
2017-11-07T23:05:27.127Z,97867.37
2017-11-07T23:07:54.642Z,97872.35
2017-11-07T23:10:22.225Z,97874.60
2017-11-07T23:12:49.754Z,97868.91
2017-11-07T23:15:17.295Z,97869.05
2017-11-07T23:17:44.798Z,97866.05
2017-11-07T23:20:12.337Z,97862.81
2017-11-07T23:22:39.870Z,97863.73
2017-11-07T23:25:07.375Z,97854.99
2017-11-07T23:27:34.933Z,97856.80
2017-11-07T23:30:02.454Z,97854.20
2017-11-07T23:32:29.954Z,97860.30
2017-11-07T23:34:57.483Z,97856.89
2017-11-07T23:37:24.989Z,97850.11
2017-11-07T23:39:52.495Z,97854.70
2017-11-07T23:42:20.114Z,97851.59
2017-11-07T23:44:47.615Z,97855.22
2017-11-07T23:47:15.121Z,97849.89
2017-11-07T23:49:42.622Z,97858.19
2017-11-07T23:52:10.123Z,97862.25
2017-11-07T23:54:37.651Z,97858.49
2017-11-07T23:57:05.151Z,97865.83
2017-11-07T23:59:32.674Z,97866.98
